Time;durP1;ratioP1;P1;durP2;ratioP2;P2;SDS_P1;SDS_P2;PMS_P1;PMS_P2;Temp;Humidity;BMP_temperature;BMP_pressure;BME280_temperature;BME280_humidity;BME280_pressure;Samples;Min_cycle;Max_cycle;Signal;HPM_P1;HPM_P2
2022/11/12 00:01:16;;;;;;;52.00;30.05;;;6.40;99.90;;;;;;2041692;29;20036;-70
2022/11/12 00:02:35;;;;;;;55.08;31.23;;;6.40;99.90;;;;;;2041651;29;20422;-70
2022/11/12 00:03:56;;;;;;;53.03;31.08;;;6.40;99.90;;;;;;2042868;29;20039;-71
2022/11/12 00:05:15;;;;;;;52.47;31.10;;;6.40;99.90;;;;;;2040811;29;20040;-70
2022/11/12 00:06:34;;;;;;;52.42;29.65;;;6.30;99.90;;;;;;2040620;29;20505;-70
2022/11/12 00:07:53;;;;;;;54.25;31.13;;;6.40;99.90;;;;;;2047856;28;20533;-70
2022/11/12 00:09:13;;;;;;;51.95;31.00;;;6.40;99.90;;;;;;2043402;29;20047;-70
2022/11/12 00:10:32;;;;;;;49.30;29.55;;;6.30;99.90;;;;;;2042270;29;20039;-69
2022/11/12 00:11:51;;;;;;;50.88;29.20;;;6.30;99.90;;;;;;2043905;29;20027;-70
2022/11/12 00:13:11;;;;;;;57.75;33.28;;;6.30;99.90;;;;;;2044259;29;20048;-70
2022/11/12 00:14:33;;;;;;;57.92;33.08;;;6.30;99.90;;;;;;2044260;29;20040;-71
2022/11/12 00:15:52;;;;;;;53.40;31.27;;;6.40;99.90;;;;;;2051003;29;20043;-72
2022/11/12 00:17:12;;;;;;;55.15;30.40;;;6.40;99.90;;;;;;2043260;29;20032;-71
2022/11/12 00:18:31;;;;;;;51.53;30.00;;;6.40;99.90;;;;;;2040647;29;20506;-69
2022/11/12 00:19:51;;;;;;;52.30;30.42;;;6.30;99.90;;;;;;2040464;29;20106;-70
2022/11/12 00:21:10;;;;;;;50.97;29.13;;;6.30;99.90;;;;;;2039596;29;20064;-70
2022/11/12 00:22:29;;;;;;;49.08;29.30;;;6.30;99.90;;;;;;2040181;29;20059;-69
2022/11/12 00:23:48;;;;;;;48.42;28.90;;;6.30;99.90;;;;;;2040566;29;20043;-71
2022/11/12 00:25:08;;;;;;;48.10;28.42;;;6.30;99.90;;;;;;2040462;29;20027;-71
2022/11/12 00:26:27;;;;;;;50.15;29.27;;;6.20;99.90;;;;;;2039694;29;20494;-70
2022/11/12 00:27:47;;;;;;;53.65;30.33;;;6.30;99.90;;;;;;2039978;29;20024;-69
2022/11/12 00:29:06;;;;;;;62.65;34.13;;;6.30;99.90;;;;;;2047500;29;20039;-70
2022/11/12 00:30:26;;;;;;;57.33;32.67;;;6.30;99.90;;;;;;2043019;29;20044;-70
2022/11/12 00:31:45;;;;;;;55.08;31.50;;;6.30;99.90;;;;;;2040184;29;20039;-70
2022/11/12 00:33:05;;;;;;;53.13;30.33;;;6.30;99.90;;;;;;2040213;29;20438;-70
2022/11/12 00:34:24;;;;;;;48.33;28.30;;;6.30;99.90;;;;;;2039931;29;20043;-70
2022/11/12 00:35:44;;;;;;;48.78;28.35;;;6.30;99.90;;;;;;2040194;29;20047;-70
2022/11/12 00:37:03;;;;;;;54.72;31.42;;;6.30;99.90;;;;;;2040458;29;20059;-69
2022/11/12 00:38:22;;;;;;;51.55;30.10;;;6.20;99.90;;;;;;2040105;29;20048;-70
2022/11/12 00:39:41;;;;;;;51.47;28.40;;;6.20;99.90;;;;;;2047360;29;20492;-70
2022/11/12 00:41:01;;;;;;;51.28;30.10;;;6.20;99.90;;;;;;2042649;29;20043;-70
2022/11/12 00:42:20;;;;;;;53.72;29.90;;;6.20;99.90;;;;;;2040116;29;20032;-71
2022/11/12 00:43:39;;;;;;;52.10;29.80;;;6.20;99.90;;;;;;2039964;29;20047;-70
2022/11/12 00:44:59;;;;;;;50.13;29.30;;;6.20;99.90;;;;;;2040146;29;20494;-70
2022/11/12 00:46:18;;;;;;;50.60;29.33;;;6.20;99.90;;;;;;2040037;29;20036;-70
2022/11/12 00:47:37;;;;;;;51.28;29.30;;;6.10;99.90;;;;;;2040083;29;20055;-70
2022/11/12 00:48:56;;;;;;;49.22;28.73;;;6.20;99.90;;;;;;2047450;29;20035;-69
2022/11/12 00:50:16;;;;;;;50.85;29.42;;;6.20;99.90;;;;;;2042846;29;20122;-70
2022/11/12 00:51:35;;;;;;;50.10;29.90;;;6.20;99.90;;;;;;2040118;29;20142;-70
2022/11/12 00:52:54;;;;;;;47.55;28.23;;;6.10;99.90;;;;;;2040102;29;20027;-70
2022/11/12 00:54:13;;;;;;;47.40;28.05;;;6.10;99.90;;;;;;2039872;29;20910;-70
2022/11/12 00:55:32;;;;;;;51.60;30.05;;;6.10;99.90;;;;;;2040222;29;20111;-69
2022/11/12 00:56:51;;;;;;;50.95;29.13;;;6.10;99.90;;;;;;2041141;29;20044;-70
2022/11/12 00:58:10;;;;;;;48.13;28.75;;;6.10;99.90;;;;;;2041237;29;20047;-69
2022/11/12 00:59:29;;;;;;;50.35;29.13;;;6.10;99.90;;;;;;2041048;29;20639;-70
2022/11/12 01:00:48;;;;;;;50.42;30.27;;;6.10;99.90;;;;;;2041248;29;20105;-70
2022/11/12 01:02:08;;;;;;;51.33;30.30;;;6.10;99.90;;;;;;2041195;29;20429;-70
2022/11/12 01:03:27;;;;;;;51.20;29.83;;;6.10;99.90;;;;;;2040205;29;20517;-71
2022/11/12 01:04:47;;;;;;;49.97;29.42;;;6.20;99.90;;;;;;2047343;29;20031;-70
2022/11/12 01:06:13;;;;;;;51.07;30.50;;;6.10;99.90;;;;;;2043063;29;20036;-70
2022/11/12 01:07:32;;;;;;;49.58;29.08;;;6.10;99.90;;;;;;2040549;29;20256;-70
2022/11/12 01:08:53;;;;;;;54.67;30.33;;;6.10;99.90;;;;;;2047408;29;20673;-70
2022/11/12 01:10:13;;;;;;;54.50;30.92;;;6.10;99.90;;;;;;2043201;29;20031;-70
2022/11/12 01:11:33;;;;;;;57.85;33.28;;;6.10;99.90;;;;;;2040292;29;20482;-70
2022/11/12 01:12:53;;;;;;;52.17;30.60;;;6.10;99.90;;;;;;2039494;29;20031;-71
2022/11/12 01:14:12;;;;;;;51.70;30.77;;;6.10;99.90;;;;;;2040650;29;20047;-71
2022/11/12 01:15:31;;;;;;;49.35;29.58;;;6.10;99.90;;;;;;2040477;29;20027;-71
2022/11/12 01:16:51;;;;;;;53.35;29.52;;;6.10;99.90;;;;;;2040340;29;20120;-69
2022/11/12 01:18:10;;;;;;;49.83;29.27;;;6.10;99.90;;;;;;2040681;29;20052;-69
2022/11/12 01:19:29;;;;;;;48.65;28.88;;;6.10;99.90;;;;;;2040415;29;20043;-70
2022/11/12 01:20:48;;;;;;;49.20;28.23;;;6.10;99.90;;;;;;2040144;29;20406;-70
2022/11/12 01:22:07;;;;;;;46.25;26.73;;;6.10;99.90;;;;;;2040557;29;20040;-70
2022/11/12 01:23:26;;;;;;;47.83;27.80;;;6.10;99.90;;;;;;2047672;29;20480;-69
2022/11/12 01:24:46;;;;;;;54.40;30.17;;;6.10;99.90;;;;;;2042964;29;20048;-71
2022/11/12 01:26:17;;;;;;;51.08;29.50;;;6.10;99.90;;;;;;2040263;29;20039;-70
2022/11/12 01:27:36;;;;;;;52.08;28.95;;;6.10;99.90;;;;;;2040387;29;20471;-70
2022/11/12 01:28:56;;;;;;;50.88;29.15;;;6.10;99.90;;;;;;2040269;29;20035;-70
2022/11/12 01:30:15;;;;;;;50.63;29.20;;;6.00;99.90;;;;;;2040109;29;20035;-71
2022/11/12 01:31:37;;;;;;;48.67;28.67;;;6.00;99.90;;;;;;2040160;29;20654;-69
2022/11/12 01:32:57;;;;;;;47.22;28.55;;;6.10;99.90;;;;;;2040026;29;20035;-70
2022/11/12 01:34:16;;;;;;;47.95;28.20;;;6.10;99.90;;;;;;2039984;29;20039;-70
2022/11/12 01:35:35;;;;;;;49.17;28.50;;;6.10;99.90;;;;;;2040189;29;20067;-70
2022/11/12 01:36:54;;;;;;;48.63;27.52;;;6.00;99.90;;;;;;2039840;29;20036;-69
2022/11/12 01:38:14;;;;;;;45.83;27.23;;;6.00;99.90;;;;;;2039865;29;20052;-70
2022/11/12 01:39:33;;;;;;;48.20;27.88;;;6.10;99.90;;;;;;2039856;29;20047;-70
2022/11/12 01:40:52;;;;;;;48.08;28.95;;;6.10;99.90;;;;;;2047137;29;20039;-70
2022/11/12 01:42:12;;;;;;;47.55;27.95;;;6.10;99.90;;;;;;2042766;29;20047;-69
2022/11/12 01:43:31;;;;;;;49.45;28.17;;;6.00;99.90;;;;;;2039866;29;20490;-71
2022/11/12 01:44:52;;;;;;;51.65;26.92;;;6.10;99.90;;;;;;2039430;29;20044;-70
2022/11/12 01:46:26;;;;;;;46.75;26.98;;;6.10;99.90;;;;;;2047220;29;20031;-70
2022/11/12 01:47:49;;;;;;;44.80;27.00;;;6.00;99.90;;;;;;2047179;28;20561;-70
2022/11/12 01:49:16;;;;;;;45.90;26.42;;;6.10;99.90;;;;;;2042476;29;20028;-69
2022/11/12 01:50:37;;;;;;;44.90;26.63;;;6.00;99.90;;;;;;2039446;29;20671;-71
2022/11/12 01:52:05;;;;;;;46.50;26.75;;;6.00;99.90;;;;;;2039790;29;20047;-71
2022/11/12 01:53:27;;;;;;;44.20;26.20;;;6.10;99.90;;;;;;2039748;29;20087;-70
2022/11/12 01:54:50;;;;;;;46.90;26.17;;;6.10;99.90;;;;;;2039612;29;20035;-71
2022/11/12 01:56:10;;;;;;;48.20;27.38;;;6.10;99.90;;;;;;2039652;29;20051;-71
2022/11/12 01:57:35;;;;;;;45.63;26.38;;;6.10;99.90;;;;;;2039568;29;20114;-71
2022/11/12 01:59:22;;;;;;;48.17;27.80;;;6.00;99.90;;;;;;2039682;29;20039;-69
2022/11/12 02:00:41;;;;;;;50.00;27.80;;;6.10;99.90;;;;;;2046174;29;20043;-69
2022/11/12 02:02:00;;;;;;;47.80;27.25;;;6.00;99.90;;;;;;2042526;29;20055;-69
2022/11/12 02:03:23;;;;;;;47.75;28.00;;;6.00;99.90;;;;;;2047015;29;20043;-69
2022/11/12 02:04:43;;;;;;;47.70;27.55;;;6.00;99.90;;;;;;2041964;29;20043;-70
2022/11/12 02:06:08;;;;;;;45.70;27.05;;;6.00;99.90;;;;;;2039671;29;20024;-69
2022/11/12 02:07:28;;;;;;;46.13;26.02;;;6.00;99.90;;;;;;2039537;29;20040;-69
2022/11/12 02:08:48;;;;;;;45.03;26.73;;;6.10;99.90;;;;;;2039560;29;20451;-69
2022/11/12 02:10:09;;;;;;;43.35;25.77;;;6.10;99.90;;;;;;2046877;29;20035;-69
2022/11/12 02:11:28;;;;;;;43.83;26.60;;;6.00;99.90;;;;;;2042222;29;20028;-69
2022/11/12 02:14:29;;;;;;;46.78;25.70;;;6.00;99.90;;;;;;2039369;29;20039;-69
2022/11/12 02:15:48;;;;;;;44.80;27.25;;;6.00;99.90;;;;;;2039629;29;20044;-69
2022/11/12 02:17:07;;;;;;;43.42;26.48;;;6.00;99.90;;;;;;2039436;29;20728;-70
2022/11/12 02:18:26;;;;;;;44.05;26.15;;;6.10;99.90;;;;;;2046899;29;20051;-70
2022/11/12 02:19:46;;;;;;;43.38;25.77;;;6.10;99.90;;;;;;2042784;29;20047;-70
2022/11/12 02:21:08;;;;;;;45.80;26.73;;;6.10;99.90;;;;;;2039422;29;20202;-70
2022/11/12 02:22:27;;;;;;;44.08;26.75;;;6.10;99.90;;;;;;2039670;29;20043;-69
2022/11/12 02:23:55;;;;;;;46.45;27.45;;;6.10;99.90;;;;;;2039596;29;20537;-69
2022/11/12 02:25:23;;;;;;;47.00;27.63;;;6.10;99.90;;;;;;2041538;29;20043;-69
2022/11/12 02:26:50;;;;;;;45.90;28.13;;;6.10;99.90;;;;;;2041507;29;20040;-70
2022/11/12 02:28:09;;;;;;;44.35;27.08;;;6.10;99.90;;;;;;2041466;29;20063;-70
2022/11/12 02:29:28;;;;;;;45.22;27.55;;;6.10;99.90;;;;;;2048752;29;20043;-70
2022/11/12 02:30:49;;;;;;;44.38;27.85;;;6.10;99.90;;;;;;2040675;29;20027;-70
2022/11/12 02:32:08;;;;;;;46.47;27.27;;;6.10;99.90;;;;;;2041388;29;20118;-70
2022/11/12 02:33:27;;;;;;;46.70;27.48;;;6.10;99.90;;;;;;2041280;29;20028;-71
2022/11/12 02:34:46;;;;;;;44.85;27.73;;;6.00;99.90;;;;;;2041261;29;20039;-70
2022/11/12 02:36:05;;;;;;;46.63;28.30;;;6.00;99.90;;;;;;2041516;29;20575;-71
2022/11/12 02:37:25;;;;;;;46.97;28.33;;;6.00;99.90;;;;;;2041032;29;20056;-71
2022/11/12 02:38:44;;;;;;;44.78;27.48;;;6.00;99.90;;;;;;2041196;29;20751;-71
2022/11/12 02:40:03;;;;;;;42.35;25.90;;;6.00;99.90;;;;;;2041570;29;20040;-70
2022/11/12 02:41:23;;;;;;;43.72;26.70;;;6.00;99.90;;;;;;2041394;29;20040;-71
2022/11/12 02:42:42;;;;;;;42.90;25.77;;;6.00;99.90;;;;;;2041838;29;20111;-71
2022/11/12 02:44:01;;;;;;;42.92;25.92;;;6.00;99.90;;;;;;2041771;29;20130;-71
2022/11/12 02:45:20;;;;;;;43.78;27.05;;;6.00;99.90;;;;;;2041709;29;20063;-71
2022/11/12 02:46:40;;;;;;;42.90;25.95;;;6.00;99.90;;;;;;2041537;29;20039;-71
2022/11/12 02:47:59;;;;;;;42.63;25.38;;;6.00;99.90;;;;;;2042001;29;20027;-70
2022/11/12 02:49:18;;;;;;;43.17;25.20;;;6.00;99.90;;;;;;2042367;29;20047;-72
2022/11/12 02:50:37;;;;;;;42.03;25.08;;;5.90;99.90;;;;;;2044639;29;20036;-71
2022/11/12 02:51:56;;;;;;;41.78;25.75;;;6.00;99.90;;;;;;2043853;29;20035;-71
2022/11/12 02:53:15;;;;;;;39.95;25.05;;;5.90;99.90;;;;;;2042974;29;20717;-71
2022/11/12 02:54:34;;;;;;;44.45;26.45;;;5.90;99.90;;;;;;2042507;29;20047;-72
2022/11/12 02:55:53;;;;;;;42.13;25.50;;;5.90;99.90;;;;;;2043627;29;20035;-70
2022/11/12 02:57:12;;;;;;;42.95;26.35;;;5.90;99.90;;;;;;2043281;29;20103;-71
2022/11/12 02:58:31;;;;;;;40.15;24.90;;;5.90;99.90;;;;;;2043644;29;20036;-70
2022/11/12 02:59:50;;;;;;;40.40;25.00;;;5.90;99.90;;;;;;2050386;29;20039;-70
2022/11/12 03:01:10;;;;;;;42.60;25.70;;;5.90;99.90;;;;;;2045254;29;20040;-70
2022/11/12 03:02:29;;;;;;;40.85;24.80;;;5.90;99.90;;;;;;2042544;29;20506;-71
2022/11/12 03:03:48;;;;;;;41.17;25.15;;;5.90;99.90;;;;;;2042901;29;20032;-70
2022/11/12 03:05:09;;;;;;;38.92;24.98;;;5.90;99.90;;;;;;2050183;29;20038;-70
2022/11/12 03:06:29;;;;;;;43.17;26.13;;;5.90;99.90;;;;;;2045031;29;20043;-71
2022/11/12 03:07:48;;;;;;;41.97;25.42;;;5.90;99.90;;;;;;2041901;29;20485;-71
2022/11/12 03:09:07;;;;;;;42.35;25.38;;;5.90;99.90;;;;;;2041691;29;20031;-71
2022/11/12 03:10:28;;;;;;;41.42;25.35;;;5.90;99.90;;;;;;2041498;29;20039;-71
2022/11/12 03:11:47;;;;;;;39.22;24.10;;;5.80;99.90;;;;;;2041294;29;20039;-70
2022/11/12 03:13:06;;;;;;;41.67;25.02;;;5.80;99.90;;;;;;2041812;29;20036;-70
2022/11/12 03:14:25;;;;;;;41.60;25.42;;;5.80;99.90;;;;;;2041074;29;20048;-71
2022/11/12 03:15:45;;;;;;;42.33;24.98;;;5.80;99.90;;;;;;2041109;29;20459;-70
2022/11/12 03:17:04;;;;;;;40.95;25.13;;;5.80;99.90;;;;;;2040858;29;20039;-71
2022/11/12 03:18:23;;;;;;;37.83;24.17;;;5.80;99.90;;;;;;2040910;29;20043;-73
2022/11/12 03:19:42;;;;;;;41.92;26.10;;;5.80;99.90;;;;;;2040654;29;20497;-71
2022/11/12 03:21:01;;;;;;;42.28;24.75;;;5.80;99.90;;;;;;2040669;29;20028;-71
2022/11/12 03:22:21;;;;;;;39.58;24.60;;;5.80;99.90;;;;;;2032923;29;20036;-70
2022/11/12 03:23:40;;;;;;;37.50;24.15;;;5.80;99.90;;;;;;2032307;29;20060;-71
2022/11/12 03:25:00;;;;;;;37.80;23.90;;;5.80;99.90;;;;;;2032699;29;20100;-70
2022/11/12 03:26:19;;;;;;;38.60;24.00;;;5.80;99.90;;;;;;2032896;29;20484;-71
2022/11/12 03:27:38;;;;;;;38.83;23.98;;;5.80;99.90;;;;;;2032760;29;20036;-73
2022/11/12 03:28:57;;;;;;;37.63;22.73;;;5.70;99.90;;;;;;2033099;29;20392;-70
2022/11/12 03:30:16;;;;;;;39.38;23.60;;;5.70;99.90;;;;;;2032906;29;20111;-70
2022/11/12 03:31:37;;;;;;;39.75;24.27;;;5.70;99.90;;;;;;2033085;29;20028;-69
2022/11/12 03:32:56;;;;;;;39.03;23.85;;;5.70;99.90;;;;;;2033130;29;20044;-70
2022/11/12 03:34:16;;;;;;;40.17;24.10;;;5.70;99.90;;;;;;2032833;29;20024;-70
2022/11/12 03:35:36;;;;;;;40.15;24.38;;;5.60;99.90;;;;;;2032496;29;20040;-70
2022/11/12 03:36:55;;;;;;;40.00;24.10;;;5.70;99.90;;;;;;2032853;29;20035;-70
2022/11/12 03:38:14;;;;;;;37.80;24.10;;;5.70;99.90;;;;;;2032730;29;20036;-71
2022/11/12 03:39:33;;;;;;;39.75;24.40;;;5.60;99.90;;;;;;2032934;29;20499;-69
2022/11/12 03:40:52;;;;;;;37.10;23.85;;;5.60;99.90;;;;;;2032713;29;20043;-69
2022/11/12 03:42:11;;;;;;;40.35;24.73;;;5.60;99.90;;;;;;2032762;29;20036;-70
2022/11/12 03:43:31;;;;;;;43.42;24.73;;;5.60;99.90;;;;;;2032963;29;20036;-69
2022/11/12 03:44:49;;;;;;;37.35;23.65;;;5.60;99.90;;;;;;2032491;29;20036;-69
2022/11/12 03:46:08;;;;;;;38.53;23.63;;;5.60;99.90;;;;;;2032702;29;20457;-70
2022/11/12 03:47:27;;;;;;;38.25;23.55;;;5.60;99.90;;;;;;2032519;29;20041;-70
2022/11/12 03:48:46;;;;;;;37.05;23.80;;;5.60;99.90;;;;;;2032546;29;20040;-70
2022/11/12 03:50:06;;;;;;;38.50;23.48;;;5.60;99.90;;;;;;2032476;29;20526;-70
2022/11/12 03:51:25;;;;;;;37.13;23.25;;;5.60;99.90;;;;;;2032367;29;20036;-69
2022/11/12 03:52:46;;;;;;;38.10;23.48;;;5.50;99.90;;;;;;2032632;29;20657;-70
2022/11/12 03:54:05;;;;;;;40.45;23.60;;;5.50;99.90;;;;;;2032508;29;20653;-72
2022/11/12 03:55:27;;;;;;;35.63;22.45;;;5.50;99.90;;;;;;2032583;29;20036;-70
2022/11/12 03:56:46;;;;;;;35.75;22.65;;;5.50;99.90;;;;;;2032601;29;20516;-69
2022/11/12 03:58:05;;;;;;;37.35;23.00;;;5.50;99.90;;;;;;2032481;29;20032;-69
2022/11/12 03:59:24;;;;;;;36.85;22.73;;;5.50;99.90;;;;;;2032706;29;20059;-69
2022/11/12 04:00:43;;;;;;;37.55;23.38;;;5.50;99.90;;;;;;2032325;29;20072;-69
2022/11/12 04:02:03;;;;;;;37.35;23.65;;;5.40;99.90;;;;;;2039954;29;20462;-70
2022/11/12 04:03:22;;;;;;;37.67;23.73;;;5.40;99.90;;;;;;2035313;29;20668;-70
2022/11/12 04:09:42;;;;;;;37.72;23.27;;;5.40;99.90;;;;;;2032302;29;20036;-71
2022/11/12 04:11:19;;;;;;;37.08;23.15;;;5.40;99.90;;;;;;2032250;29;20445;-69
2022/11/12 04:14:16;;;;;;;40.50;24.23;;;5.30;99.90;;;;;;2032289;29;20556;-71
2022/11/12 04:15:36;;;;;;;36.63;23.00;;;5.30;99.90;;;;;;2032362;29;20040;-71
2022/11/12 04:21:55;;;;;;;36.13;21.98;;;5.30;99.90;;;;;;2032285;29;20048;-70
2022/11/12 04:23:14;;;;;;;35.85;22.10;;;5.30;99.90;;;;;;2032168;29;20534;-71
2022/11/12 04:26:24;;;;;;;;;;;5.30;99.90;;;;;;2032595;29;20028;-70
2022/11/12 04:27:43;;;;;;;39.67;23.35;;;5.30;99.90;;;;;;2032231;29;19915;-70
2022/11/12 04:30:41;;;;;;;39.55;23.25;;;5.20;99.90;;;;;;2031928;29;20063;-71
2022/11/12 04:32:00;;;;;;;38.47;23.08;;;5.20;99.90;;;;;;2032316;29;20040;-70
2022/11/12 04:33:19;;;;;;;35.35;22.35;;;5.20;99.90;;;;;;2032138;29;20066;-70
2022/11/12 04:34:38;;;;;;;34.95;22.50;;;5.20;99.90;;;;;;2032063;29;20406;-71
2022/11/12 04:35:57;;;;;;;37.40;22.02;;;5.10;99.90;;;;;;2032368;29;20672;-70
2022/11/12 04:37:17;;;;;;;35.30;21.90;;;5.20;99.90;;;;;;2032590;29;20032;-71
2022/11/12 04:38:36;;;;;;;36.05;22.42;;;5.20;99.90;;;;;;2032816;29;20040;-71
2022/11/12 04:44:58;;;;;;;38.92;23.23;;;5.10;99.90;;;;;;2032653;29;20040;-71
2022/11/12 04:45:02;;;;;;;36.50;22.38;;;5.20;99.90;;;;;;2032078;29;20477;-71
2022/11/12 04:46:21;;;;;;;36.50;22.58;;;5.20;99.90;;;;;;2032145;29;20036;-71
2022/11/12 04:47:42;;;;;;;39.85;23.67;;;5.20;99.90;;;;;;2031389;29;20683;-70
2022/11/12 04:49:02;;;;;;;37.30;22.23;;;5.20;99.90;;;;;;2031516;29;20048;-70
2022/11/12 04:50:21;;;;;;;38.30;23.52;;;5.10;99.90;;;;;;2031934;29;20032;-70
2022/11/12 04:53:18;;;;;;;35.97;22.85;;;5.10;99.90;;;;;;2032310;29;20040;-70
2022/11/12 04:54:37;;;;;;;37.83;23.30;;;5.10;99.90;;;;;;2032079;29;20032;-70
2022/11/12 04:55:58;;;;;;;38.22;22.48;;;5.10;99.90;;;;;;2032213;29;20044;-70
2022/11/12 04:57:16;;;;;;;35.25;22.50;;;5.10;99.90;;;;;;2032234;29;20044;-70
2022/11/12 04:58:35;;;;;;;34.08;21.98;;;5.00;99.90;;;;;;2039478;29;20449;-70
2022/11/12 04:59:55;;;;;;;37.65;23.35;;;5.00;99.90;;;;;;2034999;29;20701;-70
2022/11/12 05:01:14;;;;;;;37.20;22.25;;;5.00;99.90;;;;;;2031980;29;20566;-70
2022/11/12 05:02:33;;;;;;;39.72;22.83;;;5.00;99.90;;;;;;2032071;29;20044;-70
2022/11/12 05:03:52;;;;;;;37.97;22.85;;;5.00;99.90;;;;;;2032203;29;20039;-70
2022/11/12 05:05:11;;;;;;;36.47;22.67;;;5.00;99.90;;;;;;2032210;29;20040;-70
2022/11/12 05:08:08;;;;;;;38.00;22.77;;;5.00;99.90;;;;;;2037566;29;20099;-70
2022/11/12 05:09:28;;;;;;;38.17;22.67;;;4.90;99.90;;;;;;2034414;29;20060;-70
2022/11/12 05:10:47;;;;;;;37.60;22.90;;;4.90;99.90;;;;;;2032040;29;20040;-70
2022/11/12 05:12:07;;;;;;;34.47;21.90;;;4.90;99.90;;;;;;2032244;29;20040;-69
2022/11/12 05:13:28;;;;;;;37.35;22.90;;;4.90;99.90;;;;;;2032237;29;20145;-69
2022/11/12 05:14:47;;;;;;;37.45;21.88;;;4.90;99.90;;;;;;2031479;29;20032;-68
2022/11/12 05:16:06;;;;;;;36.40;21.80;;;4.90;99.90;;;;;;2031762;29;20154;-69
2022/11/12 05:17:25;;;;;;;37.33;22.27;;;4.90;99.90;;;;;;2032108;29;20060;-71
2022/11/12 05:18:44;;;;;;;35.45;22.17;;;4.90;99.90;;;;;;2032084;29;20048;-70
2022/11/12 05:20:04;;;;;;;38.95;23.58;;;4.90;99.90;;;;;;2032207;29;20040;-70
2022/11/12 05:23:02;;;;;;;36.38;22.42;;;4.90;99.90;;;;;;2034324;29;20031;-70
2022/11/12 05:24:21;;;;;;;38.42;22.52;;;4.90;99.90;;;;;;2033533;29;20052;-70
2022/11/12 05:25:40;;;;;;;37.70;22.83;;;4.90;99.90;;;;;;2035591;29;20546;-71
2022/11/12 05:27:01;;;;;;;38.33;23.15;;;4.90;99.90;;;;;;2034684;29;20040;-70
2022/11/12 05:28:20;;;;;;;36.38;22.73;;;4.90;99.90;;;;;;2034895;29;20066;-69
2022/11/12 05:29:40;;;;;;;36.95;22.48;;;4.90;99.90;;;;;;2034057;29;20123;-70
2022/11/12 05:30:59;;;;;;;37.53;22.35;;;4.90;99.90;;;;;;2032012;29;20044;-69
2022/11/12 05:32:18;;;;;;;35.63;22.13;;;4.90;99.90;;;;;;2032195;29;20482;-69
2022/11/12 05:33:37;;;;;;;35.05;22.33;;;4.90;99.90;;;;;;2032125;29;20494;-69
2022/11/12 05:34:56;;;;;;;39.35;22.77;;;4.80;99.90;;;;;;2031985;29;20028;-69
2022/11/12 05:36:15;;;;;;;36.30;22.17;;;4.80;99.90;;;;;;2032007;29;20123;-69
2022/11/12 05:37:35;;;;;;;33.45;21.30;;;4.70;99.90;;;;;;2032043;29;20487;-70
2022/11/12 05:38:53;;;;;;;35.40;21.38;;;4.70;99.90;;;;;;2032077;29;20048;-70
2022/11/12 05:40:13;;;;;;;37.33;22.08;;;4.70;99.90;;;;;;2031912;29;20028;-70
2022/11/12 05:41:32;;;;;;;34.80;20.70;;;4.70;99.90;;;;;;2031881;29;20052;-70
2022/11/12 05:42:51;;;;;;;33.75;20.58;;;4.70;99.90;;;;;;2032018;29;20036;-70
2022/11/12 05:44:10;;;;;;;35.38;20.50;;;4.60;99.90;;;;;;2031806;29;20040;-70
2022/11/12 05:45:29;;;;;;;33.55;20.75;;;4.60;99.90;;;;;;2031837;29;20099;-69
2022/11/12 05:46:52;;;;;;;32.63;19.90;;;4.60;99.90;;;;;;2032147;29;20081;-69
2022/11/12 05:48:11;;;;;;;34.10;20.05;;;4.60;99.90;;;;;;2032050;29;20035;-69
2022/11/12 05:49:31;;;;;;;33.13;20.80;;;4.60;99.90;;;;;;2032022;29;20036;-69
2022/11/12 05:50:51;;;;;;;32.47;20.05;;;4.50;99.90;;;;;;2031624;29;20115;-69
2022/11/12 05:52:10;;;;;;;33.17;20.08;;;4.50;99.90;;;;;;2031861;29;20123;-69
2022/11/12 05:53:29;;;;;;;34.38;20.95;;;4.50;99.90;;;;;;2032012;29;20040;-69
2022/11/12 05:54:48;;;;;;;34.38;20.25;;;4.50;99.90;;;;;;2031865;29;20048;-69
2022/11/12 05:56:18;;;;;;;32.95;20.85;;;4.50;99.90;;;;;;2032053;29;20515;-74
2022/11/12 05:57:38;;;;;;;36.33;21.15;;;4.40;99.90;;;;;;2032446;29;20292;-69
2022/11/12 05:58:57;;;;;;;35.63;20.73;;;4.40;99.90;;;;;;2040071;29;20043;-68
2022/11/12 06:00:16;;;;;;;35.50;21.30;;;4.40;99.90;;;;;;2036865;29;20036;-68
2022/11/12 06:01:42;;;;;;;33.22;20.30;;;4.40;99.90;;;;;;2034386;29;20123;-69
2022/11/12 06:03:01;;;;;;;31.27;19.73;;;4.40;99.90;;;;;;2034672;29;20478;-71
2022/11/12 06:04:22;;;;;;;33.22;20.83;;;4.40;99.90;;;;;;2034056;29;20794;-70
2022/11/12 06:05:41;;;;;;;33.65;20.40;;;4.40;99.90;;;;;;2034463;29;20036;-68
2022/11/12 06:07:02;;;;;;;31.20;19.67;;;4.30;99.90;;;;;;2034064;29;20581;-69
2022/11/12 06:08:22;;;;;;;32.92;20.38;;;4.30;99.90;;;;;;2033576;29;20032;-74
2022/11/12 06:09:41;;;;;;;33.65;20.60;;;4.30;99.90;;;;;;2033298;29;20039;-68
2022/11/12 06:11:00;;;;;;;33.10;20.20;;;4.30;99.90;;;;;;2033079;29;20028;-66
2022/11/12 06:12:20;;;;;;;32.97;20.60;;;4.30;99.90;;;;;;2033113;29;20044;-67
2022/11/12 06:13:39;;;;;;;30.75;20.05;;;4.20;99.90;;;;;;2033310;29;20039;-68
2022/11/12 06:15:01;;;;;;;34.00;20.85;;;4.20;99.90;;;;;;2032680;29;20690;-69
2022/11/12 06:16:20;;;;;;;33.38;20.48;;;4.30;99.90;;;;;;2041108;29;20079;-69
2022/11/12 06:17:40;;;;;;;31.98;20.00;;;4.20;99.90;;;;;;2040872;29;20043;-69
2022/11/12 06:18:59;;;;;;;31.75;19.80;;;4.20;99.90;;;;;;2047440;29;20113;-69
2022/11/12 06:20:19;;;;;;;33.03;20.20;;;4.20;99.90;;;;;;2039350;29;20048;-68
2022/11/12 06:21:39;;;;;;;41.53;24.17;;;4.20;99.90;;;;;;2039653;29;20032;-68
2022/11/12 06:22:58;;;;;;;40.53;22.58;;;4.50;99.90;;;;;;2039671;29;20043;-70
2022/11/12 06:24:18;;;;;;;40.30;23.48;;;4.70;99.90;;;;;;2039354;29;20506;-69
2022/11/12 06:25:53;;;;;;;36.08;22.25;;;4.80;99.90;;;;;;2040412;29;20075;-70
2022/11/12 06:27:13;;;;;;;35.47;21.58;;;4.80;99.90;;;;;;2047170;28;20039;-70
2022/11/12 06:28:32;;;;;;;32.30;20.25;;;4.80;99.90;;;;;;2043250;29;20064;-69
2022/11/12 06:29:51;;;;;;;34.55;21.50;;;4.70;99.90;;;;;;2041301;29;20035;-70
2022/11/12 06:31:11;;;;;;;34.67;20.75;;;4.70;99.90;;;;;;2040697;29;20687;-70
2022/11/12 06:32:31;;;;;;;35.53;21.10;;;4.60;99.90;;;;;;2040996;29;20027;-70
2022/11/12 06:33:50;;;;;;;36.05;21.30;;;4.60;99.90;;;;;;2040807;29;20482;-70
2022/11/12 06:35:09;;;;;;;35.22;21.42;;;4.50;99.90;;;;;;2040971;29;20501;-70
2022/11/12 06:36:28;;;;;;;34.75;21.17;;;4.50;99.90;;;;;;2040780;29;20039;-70
2022/11/12 06:37:48;;;;;;;36.67;21.50;;;4.40;99.90;;;;;;2040618;29;20043;-70
2022/11/12 06:39:09;;;;;;;39.05;22.67;;;4.40;99.90;;;;;;2040294;29;20039;-70
2022/11/12 06:40:28;;;;;;;37.40;21.63;;;4.40;99.90;;;;;;2040636;29;20070;-70
2022/11/12 06:41:47;;;;;;;37.88;21.33;;;4.30;99.90;;;;;;2040805;29;20044;-69
2022/11/12 06:43:06;;;;;;;38.05;23.70;;;4.30;99.90;;;;;;2048084;29;20469;-69
2022/11/12 06:44:26;;;;;;;38.45;23.13;;;4.40;99.90;;;;;;2040012;29;20048;-71
2022/11/12 06:45:45;;;;;;;40.60;23.90;;;4.40;99.90;;;;;;2040583;29;20491;-70
2022/11/12 06:47:05;;;;;;;38.85;23.20;;;4.40;99.90;;;;;;2040750;29;20418;-71
2022/11/12 06:48:24;;;;;;;40.35;24.20;;;4.40;99.90;;;;;;2039825;29;20047;-70
2022/11/12 06:49:43;;;;;;;40.75;23.55;;;4.40;99.90;;;;;;2040697;29;20036;-70
2022/11/12 06:51:19;;;;;;;41.15;23.38;;;4.40;99.90;;;;;;2040553;29;20040;-70
2022/11/12 06:52:39;;;;;;;38.80;22.90;;;4.40;99.90;;;;;;2040734;29;20023;-70
2022/11/12 06:53:58;;;;;;;41.42;23.23;;;4.40;99.90;;;;;;2040917;29;20131;-70
2022/11/12 06:55:17;;;;;;;40.65;23.58;;;4.40;99.90;;;;;;2041420;29;20035;-70
2022/11/12 06:56:36;;;;;;;42.40;24.10;;;4.40;99.90;;;;;;2040224;29;20063;-70
2022/11/12 06:57:56;;;;;;;42.40;23.77;;;4.50;99.90;;;;;;2041154;29;20032;-70
2022/11/12 06:59:17;;;;;;;39.55;23.23;;;4.50;99.90;;;;;;2042059;29;20032;-70
2022/11/12 07:00:37;;;;;;;41.70;23.60;;;4.60;99.90;;;;;;2040199;29;20027;-69
2022/11/12 07:01:56;;;;;;;44.58;24.58;;;4.60;99.90;;;;;;2048385;29;20067;-70
2022/11/12 07:03:15;;;;;;;47.20;25.98;;;4.70;99.90;;;;;;2044945;29;20031;-70
2022/11/12 07:04:35;;;;;;;47.83;25.65;;;4.80;99.90;;;;;;2041255;29;20047;-71
2022/11/12 07:05:54;;;;;;;49.00;26.00;;;4.80;99.90;;;;;;2041500;29;20497;-70
2022/11/12 07:07:13;;;;;;;48.42;25.73;;;4.90;99.90;;;;;;2041076;29;20442;-69
2022/11/12 07:08:33;;;;;;;49.42;26.10;;;4.90;99.90;;;;;;2041529;29;20044;-71
2022/11/12 07:09:53;;;;;;;49.63;27.00;;;5.00;99.90;;;;;;2041609;29;20502;-70
2022/11/12 07:11:12;;;;;;;47.28;26.25;;;5.10;99.90;;;;;;2040787;29;20099;-71
2022/11/12 07:12:32;;;;;;;45.08;25.67;;;5.10;99.90;;;;;;2041461;29;20051;-71
2022/11/12 07:13:53;;;;;;;49.92;26.90;;;5.20;99.90;;;;;;2041213;29;20071;-70
2022/11/12 07:15:15;;;;;;;44.97;24.70;;;5.20;99.90;;;;;;2040675;29;20023;-71
2022/11/12 07:16:34;;;;;;;43.65;24.25;;;5.20;99.90;;;;;;2041123;29;20051;-69
2022/11/12 07:17:57;;;;;;;43.22;24.30;;;5.20;99.90;;;;;;2040676;29;20079;-71